createdAt,value
2022-12-06T00:01:22.173Z,4.18
2022-12-06T00:03:54.159Z,4.10
2022-12-06T00:06:22.656Z,4.14
2022-12-06T00:08:50.011Z,4.12
2022-12-06T00:11:22.972Z,4.11
2022-12-06T00:13:56.286Z,4.13
2022-12-06T00:16:23.503Z,4.16
2022-12-06T00:18:50.413Z,4.18
2022-12-06T00:21:26.200Z,4.18
2022-12-06T00:23:55.887Z,4.23
2022-12-06T00:26:22.977Z,4.24
2022-12-06T00:28:52.639Z,4.17
2022-12-06T00:31:21.296Z,4.20
2022-12-06T00:33:48.011Z,4.16
2022-12-06T00:36:26.430Z,4.10
2022-12-06T00:38:53.181Z,4.06
2022-12-06T00:41:23.027Z,4.00
2022-12-06T00:43:50.935Z,3.96
2022-12-06T00:46:20.255Z,3.86
2022-12-06T00:48:48.217Z,3.83
2022-12-06T00:51:16.845Z,3.81
2022-12-06T00:53:44.074Z,3.78
2022-12-06T00:56:11.506Z,3.73
2022-12-06T00:58:38.082Z,3.71
2022-12-06T01:01:14.806Z,3.70
2022-12-06T01:03:42.311Z,3.69
2022-12-06T01:06:12.012Z,3.68
2022-12-06T01:08:39.658Z,3.66
2022-12-06T01:11:06.716Z,3.62
2022-12-06T01:13:33.593Z,3.68
2022-12-06T01:16:14.888Z,3.70
2022-12-06T01:18:42.612Z,3.73
2022-12-06T01:21:16.055Z,3.75
2022-12-06T01:23:44.409Z,3.79
2022-12-06T01:26:20.024Z,3.82
2022-12-06T01:28:46.559Z,3.86
2022-12-06T01:31:13.872Z,3.89
2022-12-06T01:33:40.908Z,3.93
2022-12-06T01:36:07.842Z,3.98
2022-12-06T01:38:34.734Z,4.02
2022-12-06T01:41:01.385Z,4.06
2022-12-06T01:43:40.666Z,4.11
2022-12-06T01:46:19.202Z,4.12
2022-12-06T01:48:47.608Z,4.23
2022-12-06T01:51:15.771Z,4.28
2022-12-06T01:53:45.175Z,4.31
2022-12-06T01:56:12.065Z,4.37
2022-12-06T01:58:41.374Z,4.36
2022-12-06T02:01:09.732Z,4.43
2022-12-06T02:03:37.409Z,4.46
2022-12-06T02:06:07.348Z,4.48
2022-12-06T02:08:35.067Z,4.49
2022-12-06T02:11:03.706Z,4.45
2022-12-06T02:13:33.622Z,4.50
2022-12-06T02:16:06.163Z,4.49
2022-12-06T02:18:39.172Z,4.40
2022-12-06T02:21:11.073Z,4.37
2022-12-06T02:24:11.578Z,4.36
2022-12-06T02:26:54.206Z,4.28
2022-12-06T02:29:53.629Z,4.25
2022-12-06T02:32:27.906Z,4.19
2022-12-06T02:35:07.728Z,4.13
2022-12-06T02:37:52.594Z,4.06
2022-12-06T02:40:45.872Z,4.02
2022-12-06T02:43:20.066Z,3.98
2022-12-06T02:45:52.560Z,3.89
2022-12-06T02:48:21.973Z,3.84
2022-12-06T02:51:10.898Z,3.86
2022-12-06T02:53:41.458Z,3.82
2022-12-06T02:56:08.592Z,3.82
2022-12-06T02:58:36.507Z,3.79
2022-12-06T03:01:06.592Z,3.76
2022-12-06T03:04:17.407Z,3.72
2022-12-06T03:07:10.325Z,3.70
2022-12-06T03:10:02.977Z,3.64
2022-12-06T03:12:47.946Z,3.61
2022-12-06T03:15:22.186Z,3.56
2022-12-06T03:18:11.261Z,3.54
2022-12-06T03:20:53.189Z,3.52
2022-12-06T03:23:35.698Z,3.44
2022-12-06T03:26:04.111Z,3.50
2022-12-06T03:28:30.960Z,3.51
2022-12-06T03:31:03.572Z,3.52
2022-12-06T03:33:32.477Z,3.51
2022-12-06T03:35:59.207Z,3.61
2022-12-06T03:38:31.394Z,3.60
2022-12-06T03:41:02.742Z,3.67
2022-12-06T03:43:29.537Z,3.75
2022-12-06T03:46:06.083Z,3.78
2022-12-06T03:48:38.988Z,3.82
2022-12-06T03:51:08.644Z,3.88
2022-12-06T03:53:35.109Z,3.93
2022-12-06T03:56:01.643Z,3.97
2022-12-06T03:58:28.127Z,4.02
2022-12-06T04:00:54.644Z,4.04
2022-12-06T04:03:21.280Z,4.09
2022-12-06T04:05:47.900Z,4.12
2022-12-06T04:08:14.506Z,4.17
2022-12-06T04:10:41.060Z,4.20
2022-12-06T04:13:08.632Z,4.23
2022-12-06T04:15:37.373Z,4.21
2022-12-06T04:18:06.097Z,4.23
2022-12-06T04:20:32.972Z,4.30
2022-12-06T04:22:59.434Z,4.33
2022-12-06T04:25:25.976Z,4.34
2022-12-06T04:27:52.533Z,4.39
2022-12-06T04:30:19.175Z,4.42
2022-12-06T04:32:45.689Z,4.43
2022-12-06T04:35:12.180Z,4.50
2022-12-06T04:37:38.682Z,4.51
2022-12-06T04:40:05.969Z,4.54
2022-12-06T04:42:32.454Z,4.53
2022-12-06T04:44:59.322Z,4.48
2022-12-06T04:47:25.936Z,4.54
2022-12-06T04:49:52.849Z,4.52
2022-12-06T04:52:19.717Z,4.50
2022-12-06T04:54:46.207Z,4.48
2022-12-06T04:57:14.363Z,4.45
2022-12-06T04:59:42.417Z,4.37
2022-12-06T05:02:12.590Z,4.38
2022-12-06T05:04:39.076Z,4.36
2022-12-06T05:07:05.653Z,4.34
2022-12-06T05:09:32.161Z,4.31
2022-12-06T05:11:58.683Z,4.27
2022-12-06T05:14:25.145Z,4.20
2022-12-06T05:16:51.641Z,4.16
2022-12-06T05:19:18.206Z,4.03
2022-12-06T05:21:44.671Z,4.02
2022-12-06T05:24:11.548Z,3.93
2022-12-06T05:26:38.065Z,3.89
2022-12-06T05:29:04.640Z,3.82
2022-12-06T05:31:31.311Z,3.74
2022-12-06T05:33:57.894Z,3.68
2022-12-06T05:36:26.780Z,3.63
2022-12-06T05:38:53.844Z,3.57
2022-12-06T05:41:21.964Z,3.52
2022-12-06T05:43:48.641Z,3.46
2022-12-06T05:46:15.227Z,3.40
2022-12-06T05:48:41.817Z,3.37
2022-12-06T05:51:08.393Z,3.32
2022-12-06T05:53:35.806Z,3.28
2022-12-06T05:56:10.882Z,3.18
2022-12-06T05:58:37.956Z,3.19
2022-12-06T06:01:08.450Z,3.16
2022-12-06T06:03:35.818Z,3.14
2022-12-06T06:06:02.449Z,3.08
2022-12-06T06:08:29.883Z,3.07
2022-12-06T06:10:57.085Z,3.04
2022-12-06T06:13:23.592Z,2.99
2022-12-06T06:15:50.188Z,2.96
2022-12-06T06:18:18.470Z,2.93
2022-12-06T06:20:53.223Z,2.87
2022-12-06T06:23:20.429Z,2.84
2022-12-06T06:25:47.555Z,2.81
2022-12-06T06:28:14.491Z,2.77
2022-12-06T06:30:41.101Z,2.73
2022-12-06T06:33:07.928Z,2.69
2022-12-06T06:35:34.429Z,2.65
2022-12-06T06:38:01.163Z,2.62
2022-12-06T06:40:28.540Z,2.59
2022-12-06T06:42:55.790Z,2.54
2022-12-06T06:45:28.357Z,2.54
2022-12-06T06:47:55.301Z,2.51
2022-12-06T06:50:21.771Z,2.48
2022-12-06T06:52:48.282Z,2.46
2022-12-06T06:55:14.850Z,2.44
2022-12-06T06:57:41.358Z,2.40
2022-12-06T07:00:08.572Z,2.38
2022-12-06T07:02:35.224Z,2.36
2022-12-06T07:05:01.773Z,2.35
2022-12-06T07:07:28.301Z,2.34
2022-12-06T07:09:54.768Z,2.31
2022-12-06T07:12:21.236Z,2.29
2022-12-06T07:14:47.716Z,2.26
2022-12-06T07:17:14.314Z,2.25
2022-12-06T07:19:40.853Z,2.22
2022-12-06T07:22:07.332Z,2.19
2022-12-06T07:24:38.292Z,2.15
2022-12-06T07:27:08.441Z,2.12
2022-12-06T07:29:34.910Z,2.07
2022-12-06T07:32:01.408Z,2.06
2022-12-06T07:34:27.970Z,2.03
2022-12-06T07:36:54.488Z,2.00
2022-12-06T07:39:20.991Z,1.96
2022-12-06T07:41:47.439Z,1.95
2022-12-06T07:44:33.165Z,1.92
2022-12-06T07:46:59.709Z,1.90
2022-12-06T07:49:26.279Z,1.87
2022-12-06T07:51:54.256Z,1.86
2022-12-06T07:54:21.506Z,1.84
2022-12-06T07:56:48.485Z,1.83
2022-12-06T07:59:14.998Z,1.78
2022-12-06T08:01:41.992Z,1.81
2022-12-06T08:04:08.974Z,1.79
2022-12-06T08:06:35.834Z,1.78
2022-12-06T08:09:03.315Z,1.79
2022-12-06T08:11:29.959Z,1.80
2022-12-06T08:13:56.480Z,1.80
2022-12-06T08:16:23.140Z,1.81
2022-12-06T08:18:49.839Z,1.81
2022-12-06T08:21:16.431Z,1.82
2022-12-06T08:23:42.919Z,1.82
2022-12-06T08:26:12.707Z,1.85
2022-12-06T08:28:39.826Z,1.87
2022-12-06T08:31:11.747Z,1.91
2022-12-06T08:33:38.369Z,1.97
2022-12-06T08:36:09.834Z,2.00
2022-12-06T08:38:37.179Z,2.11
2022-12-06T08:41:05.140Z,2.20
2022-12-06T08:43:32.405Z,2.26
2022-12-06T08:45:59.290Z,2.35
2022-12-06T08:48:27.198Z,2.43
2022-12-06T08:50:53.730Z,2.51
2022-12-06T08:53:20.198Z,2.56
2022-12-06T08:56:00.476Z,2.60
2022-12-06T08:58:28.741Z,2.68
2022-12-06T09:00:55.224Z,2.72
2022-12-06T09:03:21.844Z,2.76
2022-12-06T09:05:48.348Z,2.82
2022-12-06T09:08:15.161Z,2.88
2022-12-06T09:10:43.500Z,2.92
2022-12-06T09:13:10.063Z,3.01
2022-12-06T09:15:38.241Z,3.02
2022-12-06T09:18:04.823Z,3.17
2022-12-06T09:20:31.274Z,3.27
2022-12-06T09:22:57.774Z,3.40
2022-12-06T09:25:24.256Z,3.59
2022-12-06T09:27:50.789Z,3.90
2022-12-06T09:30:17.348Z,4.30
2022-12-06T09:32:43.851Z,4.83
2022-12-06T09:35:15.127Z,5.35
2022-12-06T09:37:42.589Z,5.86
2022-12-06T09:40:16.774Z,6.30
2022-12-06T09:43:07.453Z,6.84
2022-12-06T09:45:45.272Z,7.31
2022-12-06T09:48:49.289Z,7.75
2022-12-06T09:51:21.698Z,8.18
2022-12-06T09:54:20.700Z,8.60
2022-12-06T09:56:54.609Z,9.00
2022-12-06T09:59:27.004Z,9.33
2022-12-06T10:02:26.312Z,9.66
2022-12-06T10:05:04.273Z,9.97
2022-12-06T10:08:03.028Z,10.33
2022-12-06T10:11:08.331Z,10.60
2022-12-06T10:13:37.991Z,10.80
2022-12-06T10:16:11.265Z,10.93
2022-12-06T10:18:46.835Z,11.12
2022-12-06T10:21:13.251Z,11.23
2022-12-06T10:23:39.654Z,11.21
2022-12-06T10:26:15.105Z,11.06
2022-12-06T10:28:50.995Z,10.78
2022-12-06T10:31:21.989Z,10.57
2022-12-06T10:34:00.005Z,10.27
2022-12-06T10:36:52.403Z,9.95
2022-12-06T10:39:25.113Z,9.64
2022-12-06T10:42:01.659Z,9.39
2022-12-06T10:44:42.221Z,9.11
2022-12-06T10:47:28.078Z,8.79
2022-12-06T10:50:19.914Z,8.63
2022-12-06T10:52:51.637Z,8.41
2022-12-06T10:55:41.586Z,8.16
2022-12-06T10:58:20.866Z,7.92
2022-12-06T11:00:57.018Z,7.71
2022-12-06T11:03:37.890Z,7.56
2022-12-06T11:06:33.567Z,7.38
2022-12-06T11:09:11.988Z,7.27
2022-12-06T11:11:40.452Z,7.17
2022-12-06T11:14:29.348Z,7.02
2022-12-06T11:17:02.473Z,6.89
2022-12-06T11:19:58.495Z,6.79
2022-12-06T11:22:53.287Z,6.68
2022-12-06T11:25:32.766Z,6.57
2022-12-06T11:28:08.398Z,6.53
2022-12-06T11:30:35.029Z,6.57
2022-12-06T11:33:02.568Z,6.56
2022-12-06T11:35:29.243Z,6.51
2022-12-06T11:38:00.152Z,6.39
2022-12-06T11:40:30.331Z,6.39
2022-12-06T11:43:00.126Z,6.45
2022-12-06T11:45:31.937Z,6.56
2022-12-06T11:48:00.715Z,6.69
2022-12-06T11:50:30.076Z,6.76
2022-12-06T11:53:05.279Z,6.83
2022-12-06T11:55:37.164Z,6.91
2022-12-06T11:58:12.484Z,6.92
2022-12-06T12:00:56.169Z,6.95
2022-12-06T12:03:37.080Z,6.92
2022-12-06T12:06:27.426Z,6.87
2022-12-06T12:09:03.064Z,6.76
2022-12-06T12:11:33.500Z,6.76
2022-12-06T12:14:26.646Z,6.68
2022-12-06T12:17:00.929Z,6.56
2022-12-06T12:19:33.556Z,6.58
2022-12-06T12:22:13.052Z,6.64
2022-12-06T12:27:39.835Z,6.85
2022-12-06T12:30:15.481Z,6.93
2022-12-06T12:32:43.128Z,7.02
2022-12-06T12:35:22.196Z,7.12
2022-12-06T12:37:55.518Z,7.16
2022-12-06T12:40:29.934Z,7.23
2022-12-06T12:42:59.821Z,7.32
2022-12-06T12:45:26.963Z,7.32
2022-12-06T12:48:02.378Z,7.23
2022-12-06T12:50:31.204Z,7.19
2022-12-06T12:52:58.648Z,7.23
2022-12-06T12:55:30.660Z,7.23
2022-12-06T12:58:00.820Z,7.17
2022-12-06T13:00:38.595Z,7.14
2022-12-06T13:03:42.812Z,7.09
2022-12-06T13:06:03.097Z,7.05
2022-12-06T13:08:33.848Z,7.00
2022-12-06T13:11:03.086Z,6.96
2022-12-06T13:13:36.635Z,6.92
2022-12-06T13:16:10.614Z,6.90
2022-12-06T13:18:51.043Z,6.85
2022-12-06T13:21:24.324Z,6.82
2022-12-06T13:23:55.093Z,6.83
2022-12-06T13:26:56.296Z,6.89
2022-12-06T13:29:30.170Z,6.89
2022-12-06T13:31:59.319Z,6.94
2022-12-06T13:34:38.041Z,6.94
2022-12-06T13:37:33.587Z,6.90
2022-12-06T13:40:01.322Z,6.88
2022-12-06T13:42:37.042Z,6.83
2022-12-06T13:45:06.375Z,6.74
2022-12-06T13:47:32.777Z,6.77
2022-12-06T13:50:24.632Z,6.67
2022-12-06T13:52:51.075Z,6.71
2022-12-06T13:55:26.405Z,6.66
2022-12-06T13:57:55.691Z,6.60
2022-12-06T14:00:28.025Z,6.55
2022-12-06T14:03:17.581Z,6.54
2022-12-06T14:06:15.366Z,6.53
2022-12-06T14:08:57.546Z,6.49
2022-12-06T14:11:23.978Z,6.52
2022-12-06T14:13:56.152Z,6.54
2022-12-06T14:16:26.904Z,6.54
2022-12-06T14:18:53.473Z,6.55
2022-12-06T14:21:56.925Z,6.54
2022-12-06T14:24:36.952Z,6.56
2022-12-06T14:27:11.126Z,6.54
2022-12-06T14:29:37.998Z,6.57
2022-12-06T14:32:04.698Z,6.57
2022-12-06T14:34:34.229Z,6.54
2022-12-06T14:37:02.680Z,6.60
2022-12-06T14:39:31.959Z,6.56
2022-12-06T14:42:14.977Z,6.54
2022-12-06T14:44:48.611Z,6.55
2022-12-06T14:47:18.169Z,6.50
2022-12-06T14:49:51.076Z,6.46
2022-12-06T14:52:26.312Z,6.46
2022-12-06T14:55:17.645Z,6.38
2022-12-06T14:57:49.832Z,6.35
2022-12-06T15:00:26.402Z,6.34
2022-12-06T15:03:06.193Z,6.29
2022-12-06T15:05:46.166Z,6.24
2022-12-06T15:08:31.675Z,6.22
2022-12-06T15:10:59.186Z,6.20
2022-12-06T15:13:25.762Z,6.19
2022-12-06T15:16:07.460Z,6.17
2022-12-06T15:18:38.054Z,6.18
2022-12-06T15:21:12.946Z,6.12
2022-12-06T15:23:48.045Z,6.04
2022-12-06T15:26:14.538Z,6.11
2022-12-06T15:28:40.999Z,6.09
2022-12-06T15:31:16.428Z,6.03
2022-12-06T15:33:43.143Z,5.99
2022-12-06T15:36:18.287Z,5.89
2022-12-06T15:38:45.013Z,5.91
2022-12-06T15:41:23.120Z,5.84
2022-12-06T15:43:50.386Z,5.77
2022-12-06T15:46:19.528Z,5.66
2022-12-06T15:48:46.534Z,5.67
2022-12-06T15:51:20.292Z,5.63
2022-12-06T15:53:48.801Z,5.55
2022-12-06T15:56:18.636Z,5.60
2022-12-06T15:58:46.286Z,5.58
2022-12-06T16:01:22.180Z,5.55
2022-12-06T16:03:49.998Z,5.51
2022-12-06T16:06:18.750Z,5.49
2022-12-06T16:08:45.895Z,5.47
2022-12-06T16:11:14.077Z,5.46
2022-12-06T16:13:40.650Z,5.48
2022-12-06T16:16:08.163Z,5.50
2022-12-06T16:18:34.878Z,5.50
2022-12-06T16:21:01.674Z,5.48
2022-12-06T16:23:49.407Z,5.50
2022-12-06T16:26:17.766Z,5.51
2022-12-06T16:28:44.249Z,5.49
2022-12-06T16:31:13.768Z,5.46
2022-12-06T16:33:40.683Z,5.42
2022-12-06T16:36:21.055Z,5.39
2022-12-06T16:38:49.221Z,5.35
2022-12-06T16:41:21.091Z,5.31
2022-12-06T16:43:47.615Z,5.29
2022-12-06T16:46:24.116Z,5.24
2022-12-06T16:49:02.608Z,5.13
2022-12-06T16:51:37.139Z,5.14
2022-12-06T16:54:04.330Z,5.09
2022-12-06T16:56:31.001Z,5.05
2022-12-06T16:58:58.163Z,4.99
2022-12-06T17:01:27.646Z,4.98
2022-12-06T17:03:57.564Z,4.91
2022-12-06T17:06:25.272Z,4.96
2022-12-06T17:08:52.658Z,4.94
2022-12-06T17:11:25.191Z,4.90
2022-12-06T17:13:51.685Z,4.96
2022-12-06T17:16:18.206Z,4.93
2022-12-06T17:18:47.383Z,4.94
2022-12-06T17:21:17.159Z,4.96
2022-12-06T17:23:43.893Z,4.95
2022-12-06T17:26:10.391Z,4.94
2022-12-06T17:28:36.883Z,4.93
2022-12-06T17:31:07.432Z,4.89
2022-12-06T17:33:34.561Z,4.95
2022-12-06T17:36:09.461Z,4.93
2022-12-06T17:38:36.148Z,4.96
2022-12-06T17:41:03.213Z,4.95
2022-12-06T17:43:29.701Z,4.92
2022-12-06T17:45:56.217Z,4.94
2022-12-06T17:48:22.731Z,4.93
2022-12-06T17:50:49.199Z,4.93
2022-12-06T17:53:15.722Z,4.94
2022-12-06T17:55:42.181Z,4.93
2022-12-06T17:58:08.661Z,4.94
2022-12-06T18:00:35.151Z,4.94
2022-12-06T18:03:01.684Z,4.95
2022-12-06T18:05:28.172Z,4.94
2022-12-06T18:07:54.708Z,4.95
2022-12-06T18:10:21.261Z,4.96
2022-12-06T18:12:47.778Z,4.96
2022-12-06T18:15:14.304Z,4.92
2022-12-06T18:17:40.846Z,4.99
2022-12-06T18:20:08.091Z,5.00
2022-12-06T18:22:34.659Z,5.03
2022-12-06T18:25:01.555Z,5.04
2022-12-06T18:27:28.269Z,5.08
2022-12-06T18:29:54.707Z,5.07
2022-12-06T18:32:21.179Z,5.09
2022-12-06T18:34:47.653Z,5.11
2022-12-06T18:37:14.192Z,5.12
2022-12-06T18:39:40.666Z,5.12
2022-12-06T18:42:07.214Z,5.14
2022-12-06T18:44:33.694Z,5.14
2022-12-06T18:47:00.188Z,5.12
2022-12-06T18:49:26.669Z,5.12
2022-12-06T18:51:53.157Z,4.95
2022-12-06T18:54:19.721Z,5.09
2022-12-06T18:56:46.277Z,5.10
2022-12-06T18:59:12.794Z,5.10
2022-12-06T19:01:41.123Z,5.11
2022-12-06T19:04:09.478Z,5.12
2022-12-06T19:06:37.956Z,5.10
2022-12-06T19:09:07.610Z,5.10
2022-12-06T19:11:41.786Z,5.04
2022-12-06T19:14:09.239Z,5.11
2022-12-06T19:16:41.716Z,5.10
2022-12-06T19:19:16.256Z,5.06
2022-12-06T19:21:48.210Z,5.10
2022-12-06T19:24:18.161Z,5.05
2022-12-06T19:26:44.988Z,5.08
2022-12-06T19:29:12.297Z,5.08
2022-12-06T19:31:38.808Z,5.06
2022-12-06T19:34:05.355Z,5.04
2022-12-06T19:36:32.669Z,5.01
2022-12-06T19:39:05.066Z,4.96
2022-12-06T19:41:32.170Z,4.92
2022-12-06T19:43:58.936Z,4.89
2022-12-06T19:46:27.236Z,4.86
2022-12-06T19:48:57.193Z,4.78
2022-12-06T19:51:23.833Z,4.74
2022-12-06T19:53:50.332Z,4.71
2022-12-06T19:56:16.848Z,4.67
2022-12-06T19:58:43.314Z,4.61
2022-12-06T20:01:11.655Z,4.57
2022-12-06T20:03:38.330Z,4.50
2022-12-06T20:06:17.907Z,4.47
2022-12-06T20:08:45.610Z,4.42
2022-12-06T20:11:14.320Z,4.36
2022-12-06T20:13:40.756Z,4.35
2022-12-06T20:16:07.492Z,4.29
2022-12-06T20:18:34.031Z,4.24
2022-12-06T20:21:00.515Z,4.22
2022-12-06T20:23:27.022Z,4.16
2022-12-06T20:25:56.957Z,4.06
2022-12-06T20:28:23.462Z,4.09
2022-12-06T20:30:50.001Z,4.01
2022-12-06T20:33:16.499Z,3.98
2022-12-06T20:35:42.957Z,3.95
2022-12-06T20:38:09.451Z,3.93
2022-12-06T20:40:35.927Z,3.89
2022-12-06T20:43:02.415Z,3.86
2022-12-06T20:45:29.048Z,3.80
2022-12-06T20:47:55.550Z,3.75
2022-12-06T20:50:22.107Z,3.75
2022-12-06T20:52:48.768Z,3.72
2022-12-06T20:55:15.254Z,3.68
2022-12-06T20:57:41.799Z,3.66
2022-12-06T21:00:09.660Z,3.63
2022-12-06T21:02:36.782Z,3.60
2022-12-06T21:05:04.045Z,3.56
2022-12-06T21:07:30.579Z,3.56
2022-12-06T21:09:57.143Z,3.53
2022-12-06T21:12:23.606Z,3.51
2022-12-06T21:14:50.071Z,3.50
2022-12-06T21:17:16.556Z,3.49
2022-12-06T21:19:43.022Z,3.46
2022-12-06T21:22:09.589Z,3.45
2022-12-06T21:24:36.034Z,3.43
2022-12-06T21:27:02.512Z,3.42
2022-12-06T21:29:31.203Z,3.42
2022-12-06T21:32:00.429Z,3.38
2022-12-06T21:34:26.903Z,3.38
2022-12-06T21:36:53.673Z,3.37
2022-12-06T21:39:20.160Z,3.35
2022-12-06T21:41:46.666Z,3.35
2022-12-06T21:44:13.133Z,3.33
2022-12-06T21:46:39.736Z,3.32
2022-12-06T21:49:06.338Z,3.30
2022-12-06T21:51:33.041Z,3.27
2022-12-06T21:53:59.879Z,3.24
2022-12-06T21:56:29.563Z,3.18
2022-12-06T21:58:56.416Z,3.21
2022-12-06T22:01:25.416Z,3.15
2022-12-06T22:03:53.710Z,3.12
2022-12-06T22:06:20.686Z,3.15
2022-12-06T22:08:48.397Z,3.12
2022-12-06T22:11:19.860Z,3.11
2022-12-06T22:13:47.525Z,3.09
2022-12-06T22:16:15.370Z,3.10
2022-12-06T22:18:45.393Z,3.05
2022-12-06T22:21:18.907Z,3.05
2022-12-06T22:23:46.304Z,3.04
2022-12-06T22:26:18.981Z,3.02
2022-12-06T22:28:46.283Z,3.02
2022-12-06T22:31:15.476Z,3.00
2022-12-06T22:33:42.598Z,2.99
2022-12-06T22:36:10.343Z,2.96
2022-12-06T22:38:37.214Z,2.93
2022-12-06T22:41:04.645Z,2.91
2022-12-06T22:43:32.105Z,2.91
2022-12-06T22:46:10.611Z,2.89
2022-12-06T22:48:38.284Z,2.88
2022-12-06T22:51:12.237Z,2.86
2022-12-06T22:53:44.519Z,2.84
2022-12-06T22:56:11.422Z,2.82
2022-12-06T22:58:38.615Z,2.79
2022-12-06T23:01:19.385Z,2.77
2022-12-06T23:03:48.234Z,2.76
2022-12-06T23:06:17.149Z,2.76
2022-12-06T23:08:43.903Z,2.76
2022-12-06T23:11:13.244Z,2.75
2022-12-06T23:13:40.547Z,2.80
2022-12-06T23:16:12.273Z,2.79
2022-12-06T23:18:38.965Z,2.84
2022-12-06T23:21:10.631Z,2.85
2022-12-06T23:23:37.299Z,2.87
2022-12-06T23:26:31.571Z,2.86
2022-12-06T23:28:58.444Z,2.88
2022-12-06T23:31:27.289Z,2.86
2022-12-06T23:33:56.493Z,2.85
2022-12-06T23:36:25.340Z,2.82
2022-12-06T23:38:52.231Z,2.89
2022-12-06T23:41:22.336Z,2.88
2022-12-06T23:43:49.272Z,2.86
2022-12-06T23:46:22.116Z,2.87
2022-12-06T23:48:50.346Z,2.86
2022-12-06T23:51:22.762Z,2.80
2022-12-06T23:53:54.337Z,2.82
2022-12-06T23:56:22.196Z,2.85
2022-12-06T23:58:49.460Z,2.88
